createdAt,value
2018-09-09T00:02:11.255Z,99.90
2018-09-09T00:07:14.292Z,99.90
2018-09-09T00:12:17.669Z,99.90
2018-09-09T00:17:20.716Z,99.90
2018-09-09T00:22:23.773Z,99.90
2018-09-09T00:27:26.776Z,99.90
2018-09-09T00:32:29.805Z,99.90
2018-09-09T00:37:32.805Z,99.90
2018-09-09T00:42:35.918Z,99.90
2018-09-09T00:47:38.953Z,99.90
2018-09-09T00:52:47.527Z,99.90
2018-09-09T00:57:50.667Z,99.90
2018-09-09T01:02:53.671Z,99.90
2018-09-09T01:07:56.728Z,99.90
2018-09-09T01:13:00.153Z,99.90
2018-09-09T01:18:05.332Z,99.90
2018-09-09T01:23:08.349Z,99.90
2018-09-09T01:28:11.450Z,99.90
2018-09-09T01:33:14.498Z,99.90
2018-09-09T01:38:17.642Z,99.90
2018-09-09T01:43:20.710Z,99.90
2018-09-09T01:48:23.864Z,99.90
2018-09-09T01:53:26.953Z,99.90
2018-09-09T01:59:33.723Z,99.90
2018-09-09T02:04:36.849Z,99.90
2018-09-09T02:09:39.963Z,99.90
2018-09-09T02:14:43.061Z,99.90
2018-09-09T02:19:46.098Z,99.90
2018-09-09T02:24:49.129Z,99.90
2018-09-09T02:29:52.318Z,99.90
2018-09-09T02:34:55.428Z,99.90
2018-09-09T02:39:58.453Z,99.90
2018-09-09T02:45:01.549Z,99.90
2018-09-09T02:50:04.814Z,99.90
2018-09-09T02:55:07.878Z,99.90
2018-09-09T03:00:10.932Z,99.90
2018-09-09T03:05:14.010Z,99.90
2018-09-09T03:10:17.032Z,99.90
2018-09-09T03:15:20.123Z,99.90
2018-09-09T03:20:23.279Z,99.90
2018-09-09T03:25:26.341Z,99.90
2018-09-09T03:30:29.407Z,99.90
2018-09-09T03:35:32.488Z,99.90
2018-09-09T03:40:35.512Z,99.90
2018-09-09T03:45:38.516Z,99.90
2018-09-09T03:50:41.576Z,99.90
2018-09-09T03:55:45.568Z,99.90
2018-09-09T04:00:48.615Z,99.90
2018-09-09T04:05:51.646Z,99.90
2018-09-09T04:10:54.687Z,99.90
2018-09-09T04:15:57.731Z,99.90
2018-09-09T04:21:00.768Z,99.90
2018-09-09T04:26:03.910Z,99.90
2018-09-09T04:31:07.048Z,99.90
2018-09-09T04:36:10.070Z,99.90
2018-09-09T04:41:13.116Z,99.90
2018-09-09T04:46:16.175Z,99.90
2018-09-09T04:51:19.155Z,99.90
2018-09-09T04:56:22.275Z,99.90
2018-09-09T05:01:25.492Z,99.90
2018-09-09T05:06:28.480Z,99.90
2018-09-09T05:11:31.540Z,99.90
2018-09-09T05:16:34.615Z,99.90
2018-09-09T05:21:37.744Z,99.90
2018-09-09T05:26:40.835Z,99.90
2018-09-09T05:31:44.008Z,99.90
2018-09-09T05:36:47.163Z,99.90
2018-09-09T05:41:50.205Z,99.90
2018-09-09T05:46:53.335Z,99.90
2018-09-09T05:51:56.383Z,99.90
2018-09-09T05:56:59.616Z,99.90
2018-09-09T06:02:03.755Z,99.90
2018-09-09T06:07:06.983Z,99.90
2018-09-09T06:12:10.188Z,99.90
2018-09-09T06:17:13.390Z,99.90
2018-09-09T06:22:16.479Z,99.90
2018-09-09T06:27:19.564Z,99.90
2018-09-09T06:32:22.583Z,99.90
2018-09-09T06:37:25.701Z,99.90
2018-09-09T06:42:28.716Z,99.90
2018-09-09T06:47:31.800Z,99.90
2018-09-09T06:52:34.846Z,99.90
2018-09-09T06:57:37.832Z,99.90
2018-09-09T07:02:41.027Z,99.90
2018-09-09T07:07:44.131Z,99.90
2018-09-09T07:12:47.167Z,99.90
2018-09-09T07:17:51.288Z,99.90
2018-09-09T07:22:54.917Z,99.90
2018-09-09T07:27:58.016Z,99.90
2018-09-09T07:33:01.036Z,99.90
2018-09-09T07:38:04.111Z,99.90
2018-09-09T07:43:07.338Z,99.90
2018-09-09T07:48:10.397Z,99.90
2018-09-09T07:53:13.429Z,99.60
2018-09-09T07:58:16.727Z,94.60
2018-09-09T08:03:19.782Z,93.50
2018-09-09T08:08:22.834Z,92.00
2018-09-09T08:13:25.954Z,91.10
2018-09-09T08:18:29.153Z,88.30
2018-09-09T08:23:32.132Z,83.60
2018-09-09T08:28:35.195Z,76.20
2018-09-09T08:33:40.383Z,75.70
2018-09-09T08:38:43.584Z,75.30
2018-09-09T08:43:46.625Z,75.10
2018-09-09T08:48:49.737Z,75.60
2018-09-09T08:53:52.910Z,73.90
2018-09-09T08:58:55.984Z,75.10
2018-09-09T09:03:59.010Z,75.90
2018-09-09T09:09:02.152Z,79.40
2018-09-09T09:14:05.300Z,80.30
2018-09-09T09:19:08.575Z,79.80
2018-09-09T09:24:11.629Z,82.30
2018-09-09T09:29:14.783Z,83.00
2018-09-09T09:34:17.886Z,79.70
2018-09-09T09:39:22.392Z,80.90
2018-09-09T09:44:25.437Z,84.20
2018-09-09T09:49:28.693Z,82.70
2018-09-09T09:54:31.816Z,82.20
2018-09-09T09:59:34.892Z,82.50
2018-09-09T10:04:38.023Z,78.90
2018-09-09T10:09:41.070Z,79.20
2018-09-09T10:14:44.213Z,82.80
2018-09-09T10:19:47.350Z,79.50
2018-09-09T10:24:50.436Z,78.30
2018-09-09T10:29:53.539Z,76.40
2018-09-09T10:34:56.604Z,77.40
2018-09-09T10:39:59.683Z,75.70
2018-09-09T10:45:02.696Z,74.10
2018-09-09T10:50:06.368Z,74.40
2018-09-09T10:55:09.395Z,75.90
2018-09-09T11:00:12.431Z,71.60
2018-09-09T11:05:15.514Z,72.00
2018-09-09T11:10:18.715Z,71.40
2018-09-09T11:15:21.921Z,71.80
2018-09-09T11:20:26.053Z,73.00
2018-09-09T11:25:29.097Z,74.00
2018-09-09T11:30:32.168Z,70.30
2018-09-09T11:35:35.251Z,66.30
2018-09-09T11:40:38.363Z,66.70
2018-09-09T11:45:41.399Z,65.30
2018-09-09T11:50:44.617Z,68.40
2018-09-09T11:55:47.776Z,65.60
2018-09-09T12:00:50.840Z,64.90
2018-09-09T12:05:53.876Z,62.40
2018-09-09T12:10:56.908Z,61.60
2018-09-09T12:16:00.019Z,61.20
2018-09-09T12:21:03.167Z,62.10
2018-09-09T12:26:06.814Z,60.30
2018-09-09T12:31:09.840Z,60.50
2018-09-09T12:36:12.882Z,61.70
2018-09-09T12:41:16.044Z,59.30
2018-09-09T12:46:24.606Z,59.90
2018-09-09T12:51:27.745Z,60.40
2018-09-09T12:56:30.890Z,60.20
2018-09-09T13:01:33.903Z,59.70
2018-09-09T13:06:37.003Z,59.20
2018-09-09T13:11:40.120Z,59.10
2018-09-09T13:16:43.318Z,62.00
2018-09-09T13:21:47.361Z,62.40
2018-09-09T13:26:50.452Z,60.40
2018-09-09T13:31:53.615Z,61.20
2018-09-09T13:36:56.672Z,59.70
2018-09-09T13:41:59.771Z,58.80
2018-09-09T13:47:03.131Z,59.60
2018-09-09T13:52:06.768Z,60.20
2018-09-09T13:57:09.864Z,59.00
2018-09-09T14:02:12.886Z,58.50
2018-09-09T14:07:15.935Z,58.80
2018-09-09T14:12:18.996Z,60.00
2018-09-09T14:17:23.013Z,58.20
2018-09-09T14:22:26.147Z,58.10
2018-09-09T14:27:29.086Z,56.80
2018-09-09T14:32:32.679Z,57.60
2018-09-09T14:37:35.755Z,56.10
2018-09-09T14:42:38.812Z,56.30
2018-09-09T14:47:41.892Z,56.50
2018-09-09T14:52:45.065Z,59.50
2018-09-09T14:57:48.220Z,59.40
2018-09-09T15:02:51.304Z,58.50
2018-09-09T15:07:54.335Z,59.00
2018-09-09T15:12:57.367Z,59.10
2018-09-09T15:18:00.677Z,59.00
2018-09-09T15:23:03.722Z,60.00
2018-09-09T15:28:06.810Z,60.60
2018-09-09T15:33:10.994Z,61.30
2018-09-09T15:38:14.026Z,61.00
2018-09-09T15:43:17.237Z,59.80
2018-09-09T15:48:20.326Z,59.70
2018-09-09T15:53:23.408Z,59.90
2018-09-09T15:58:27.165Z,59.40
2018-09-09T16:03:30.241Z,60.10
2018-09-09T16:08:33.301Z,59.70
2018-09-09T16:13:36.438Z,60.50
2018-09-09T16:18:39.459Z,60.90
2018-09-09T16:23:42.531Z,61.40
2018-09-09T16:28:45.620Z,61.90
2018-09-09T16:33:48.658Z,62.50
2018-09-09T16:38:51.684Z,63.40
2018-09-09T16:43:54.780Z,62.30
2018-09-09T16:48:57.814Z,63.20
2018-09-09T16:54:01.903Z,64.00
2018-09-09T16:59:05.332Z,64.70
2018-09-09T17:04:08.402Z,65.20
2018-09-09T17:09:12.016Z,65.60
2018-09-09T17:14:18.483Z,67.40
2018-09-09T17:19:21.519Z,66.80
2018-09-09T17:24:24.673Z,69.20
2018-09-09T17:29:28.134Z,70.00
2018-09-09T17:34:32.264Z,72.80
2018-09-09T17:39:35.465Z,76.60
2018-09-09T17:44:38.512Z,77.80
2018-09-09T17:49:41.902Z,82.00
2018-09-09T17:54:45.035Z,85.00
2018-09-09T17:59:48.636Z,87.00
2018-09-09T18:04:51.780Z,88.50
2018-09-09T18:09:55.299Z,89.20
2018-09-09T18:14:58.464Z,90.20
2018-09-09T18:20:01.854Z,91.50
2018-09-09T18:25:04.945Z,92.60
2018-09-09T18:30:08.090Z,96.40
2018-09-09T18:35:11.153Z,96.60
2018-09-09T18:40:14.361Z,98.10
2018-09-09T18:45:18.900Z,98.10
2018-09-09T18:50:21.952Z,99.00
2018-09-09T18:55:25.569Z,99.90
2018-09-09T19:00:31.449Z,99.90
2018-09-09T19:05:34.602Z,99.90
2018-09-09T19:10:37.759Z,99.90
2018-09-09T19:15:40.855Z,99.90
2018-09-09T19:20:44.096Z,99.90
2018-09-09T19:25:47.387Z,99.90
2018-09-09T19:30:51.112Z,99.90
2018-09-09T19:35:54.858Z,99.90
2018-09-09T19:41:01.409Z,99.90
2018-09-09T19:46:04.480Z,99.90
2018-09-09T19:51:07.877Z,99.90
2018-09-09T19:56:11.030Z,99.90
2018-09-09T20:01:14.104Z,99.90
2018-09-09T20:06:17.176Z,99.90
2018-09-09T20:11:20.261Z,99.90
2018-09-09T20:16:23.477Z,99.90
2018-09-09T20:21:27.653Z,99.90
2018-09-09T20:26:31.021Z,99.90
2018-09-09T20:31:34.200Z,99.90
2018-09-09T20:36:37.289Z,99.90
2018-09-09T20:41:40.736Z,99.90
2018-09-09T20:46:44.055Z,99.90
2018-09-09T20:51:47.181Z,99.90
2018-09-09T20:56:50.224Z,99.90
2018-09-09T21:01:53.354Z,99.90
2018-09-09T21:06:56.454Z,99.90
2018-09-09T21:11:59.501Z,99.90
2018-09-09T21:17:02.614Z,99.90
2018-09-09T21:22:06.003Z,99.90
2018-09-09T21:27:09.176Z,99.90
2018-09-09T21:32:12.214Z,99.90
2018-09-09T21:37:15.272Z,99.90
2018-09-09T21:42:18.335Z,99.90
2018-09-09T21:47:21.371Z,99.90
2018-09-09T21:52:24.378Z,99.90
2018-09-09T21:57:27.397Z,99.90
2018-09-09T22:02:30.473Z,99.90
2018-09-09T22:07:33.489Z,99.90
2018-09-09T22:12:36.550Z,99.90
2018-09-09T22:17:39.579Z,99.90
2018-09-09T22:22:42.621Z,99.90
2018-09-09T22:27:45.659Z,99.90
2018-09-09T22:32:48.701Z,99.90
2018-09-09T22:37:51.752Z,99.90
2018-09-09T22:42:54.910Z,99.90
2018-09-09T22:47:57.963Z,99.90
2018-09-09T22:53:01.079Z,99.90
2018-09-09T22:58:04.111Z,99.90
2018-09-09T23:03:07.365Z,99.90
2018-09-09T23:08:10.406Z,99.90
2018-09-09T23:13:13.440Z,99.90
2018-09-09T23:18:16.499Z,99.90
2018-09-09T23:23:19.535Z,99.90
2018-09-09T23:28:22.592Z,99.90
2018-09-09T23:33:25.627Z,99.90
2018-09-09T23:38:28.650Z,99.90
2018-09-09T23:43:31.687Z,99.90
2018-09-09T23:48:34.848Z,99.90
2018-09-09T23:53:37.911Z,99.90
2018-09-09T23:58:40.969Z,99.90
